sensor_id;sensor_type;location;lat;lon;timestamp;P1;durP1;ratioP1;P2;durP2;ratioP2
58581;SDS011;44361;51.476;5.700;2024-03-23T00:53:06;28.75;;;8.65;;
58581;SDS011;44361;51.476;5.700;2024-03-23T00:55:31;26.70;;;9.40;;
58581;SDS011;44361;51.476;5.700;2024-03-23T00:57:57;26.58;;;7.82;;
58581;SDS011;44361;51.476;5.700;2024-03-23T01:00:22;22.60;;;6.50;;
58581;SDS011;44361;51.476;5.700;2024-03-23T01:02:48;28.98;;;6.30;;
58581;SDS011;44361;51.476;5.700;2024-03-23T01:05:13;17.75;;;5.95;;
58581;SDS011;44361;51.476;5.700;2024-03-23T01:07:39;18.77;;;5.63;;
58581;SDS011;44361;51.476;5.700;2024-03-23T01:10:04;25.30;;;5.78;;
58581;SDS011;44361;51.476;5.700;2024-03-23T01:12:30;18.75;;;5.28;;
58581;SDS011;44361;51.476;5.700;2024-03-23T01:14:56;19.92;;;4.68;;
58581;SDS011;44361;51.476;5.700;2024-03-23T01:17:21;14.27;;;5.38;;
58581;SDS011;44361;51.476;5.700;2024-03-23T01:19:47;25.27;;;4.57;;
58581;SDS011;44361;51.476;5.700;2024-03-23T01:22:12;21.00;;;4.47;;
58581;SDS011;44361;51.476;5.700;2024-03-23T01:24:38;23.52;;;5.68;;
58581;SDS011;44361;51.476;5.700;2024-03-23T01:27:04;14.45;;;4.43;;
58581;SDS011;44361;51.476;5.700;2024-03-23T01:29:29;16.20;;;4.75;;
58581;SDS011;44361;51.476;5.700;2024-03-23T01:31:55;19.35;;;4.75;;
58581;SDS011;44361;51.476;5.700;2024-03-23T01:34:21;21.15;;;4.97;;
58581;SDS011;44361;51.476;5.700;2024-03-23T01:36:46;17.80;;;4.07;;
58581;SDS011;44361;51.476;5.700;2024-03-23T01:39:12;12.35;;;4.07;;
58581;SDS011;44361;51.476;5.700;2024-03-23T01:41:39;24.25;;;4.80;;
58581;SDS011;44361;51.476;5.700;2024-03-23T01:44:07;26.15;;;4.13;;
58581;SDS011;44361;51.476;5.700;2024-03-23T01:46:33;17.38;;;4.75;;
58581;SDS011;44361;51.476;5.700;2024-03-23T01:48:59;13.65;;;3.75;;
58581;SDS011;44361;51.476;5.700;2024-03-23T01:51:25;18.88;;;4.22;;
58581;SDS011;44361;51.476;5.700;2024-03-23T01:53:52;20.58;;;4.40;;
58581;SDS011;44361;51.476;5.700;2024-03-23T01:56:19;9.05;;;3.40;;
58581;SDS011;44361;51.476;5.700;2024-03-23T01:58:45;14.68;;;4.30;;
58581;SDS011;44361;51.476;5.700;2024-03-23T02:01:10;18.88;;;4.78;;
58581;SDS011;44361;51.476;5.700;2024-03-23T02:03:36;23.67;;;4.63;;
58581;SDS011;44361;51.476;5.700;2024-03-23T02:06:01;20.15;;;4.00;;
58581;SDS011;44361;51.476;5.700;2024-03-23T02:08:27;13.70;;;4.75;;
58581;SDS011;44361;51.476;5.700;2024-03-23T02:10:54;14.95;;;4.53;;
58581;SDS011;44361;51.476;5.700;2024-03-23T02:13:20;14.82;;;4.47;;
58581;SDS011;44361;51.476;5.700;2024-03-23T02:15:45;21.10;;;4.35;;
58581;SDS011;44361;51.476;5.700;2024-03-23T02:18:11;15.63;;;4.57;;
58581;SDS011;44361;51.476;5.700;2024-03-23T02:20:37;16.60;;;4.93;;
58581;SDS011;44361;51.476;5.700;2024-03-23T02:23:04;20.38;;;4.63;;
58581;SDS011;44361;51.476;5.700;2024-03-23T02:25:31;18.75;;;4.43;;
58581;SDS011;44361;51.476;5.700;2024-03-23T02:27:57;19.58;;;4.78;;
58581;SDS011;44361;51.476;5.700;2024-03-23T02:30:24;16.25;;;4.07;;
58581;SDS011;44361;51.476;5.700;2024-03-23T02:32:50;17.83;;;4.43;;
58581;SDS011;44361;51.476;5.700;2024-03-23T02:35:16;14.35;;;3.90;;
58581;SDS011;44361;51.476;5.700;2024-03-23T02:37:41;15.25;;;4.60;;
58581;SDS011;44361;51.476;5.700;2024-03-23T02:40:07;21.00;;;5.07;;
58581;SDS011;44361;51.476;5.700;2024-03-23T02:42:33;21.95;;;4.50;;
58581;SDS011;44361;51.476;5.700;2024-03-23T02:44:59;12.35;;;3.92;;
58581;SDS011;44361;51.476;5.700;2024-03-23T02:47:24;17.80;;;5.32;;
58581;SDS011;44361;51.476;5.700;2024-03-23T02:49:50;20.23;;;5.07;;
58581;SDS011;44361;51.476;5.700;2024-03-23T02:52:15;18.92;;;5.82;;
58581;SDS011;44361;51.476;5.700;2024-03-23T02:54:41;21.05;;;5.65;;
58581;SDS011;44361;51.476;5.700;2024-03-23T02:57:10;23.42;;;5.63;;
58581;SDS011;44361;51.476;5.700;2024-03-23T02:59:36;26.30;;;5.85;;
58581;SDS011;44361;51.476;5.700;2024-03-23T03:02:01;15.98;;;6.13;;
58581;SDS011;44361;51.476;5.700;2024-03-23T03:04:29;20.40;;;5.45;;
58581;SDS011;44361;51.476;5.700;2024-03-23T03:06:55;19.00;;;6.32;;
58581;SDS011;44361;51.476;5.700;2024-03-23T03:09:20;18.80;;;5.13;;
58581;SDS011;44361;51.476;5.700;2024-03-23T03:11:46;25.90;;;6.03;;
58581;SDS011;44361;51.476;5.700;2024-03-23T03:14:12;14.35;;;5.03;;
58581;SDS011;44361;51.476;5.700;2024-03-23T03:16:37;17.85;;;5.05;;
58581;SDS011;44361;51.476;5.700;2024-03-23T03:19:03;17.73;;;5.32;;
58581;SDS011;44361;51.476;5.700;2024-03-23T03:21:29;12.95;;;4.55;;
58581;SDS011;44361;51.476;5.700;2024-03-23T03:23:55;23.90;;;5.50;;
58581;SDS011;44361;51.476;5.700;2024-03-23T03:26:21;14.52;;;5.45;;
58581;SDS011;44361;51.476;5.700;2024-03-23T03:28:47;15.05;;;5.13;;
58581;SDS011;44361;51.476;5.700;2024-03-23T03:31:17;18.08;;;4.85;;
58581;SDS011;44361;51.476;5.700;2024-03-23T03:33:43;24.77;;;5.35;;
58581;SDS011;44361;51.476;5.700;2024-03-23T03:36:10;21.50;;;5.15;;
58581;SDS011;44361;51.476;5.700;2024-03-23T03:38:35;29.40;;;5.53;;
58581;SDS011;44361;51.476;5.700;2024-03-23T03:41:02;25.73;;;6.00;;
58581;SDS011;44361;51.476;5.700;2024-03-23T03:43:27;18.85;;;5.38;;
58581;SDS011;44361;51.476;5.700;2024-03-23T03:45:53;16.17;;;5.28;;
58581;SDS011;44361;51.476;5.700;2024-03-23T03:48:19;25.10;;;5.38;;
58581;SDS011;44361;51.476;5.700;2024-03-23T03:50:45;22.55;;;4.97;;
58581;SDS011;44361;51.476;5.700;2024-03-23T03:53:11;27.83;;;6.35;;
58581;SDS011;44361;51.476;5.700;2024-03-23T03:55:36;16.38;;;4.55;;
58581;SDS011;44361;51.476;5.700;2024-03-23T03:58:02;15.20;;;4.80;;
58581;SDS011;44361;51.476;5.700;2024-03-23T04:00:27;18.67;;;5.15;;
58581;SDS011;44361;51.476;5.700;2024-03-23T04:02:53;18.02;;;4.63;;
58581;SDS011;44361;51.476;5.700;2024-03-23T04:05:18;14.77;;;4.15;;
58581;SDS011;44361;51.476;5.700;2024-03-23T04:07:45;14.77;;;4.03;;
58581;SDS011;44361;51.476;5.700;2024-03-23T04:10:10;16.05;;;3.40;;
58581;SDS011;44361;51.476;5.700;2024-03-23T04:12:36;9.85;;;3.95;;
58581;SDS011;44361;51.476;5.700;2024-03-23T04:15:02;16.20;;;3.97;;
58581;SDS011;44361;51.476;5.700;2024-03-23T04:17:29;16.08;;;3.78;;
58581;SDS011;44361;51.476;5.700;2024-03-23T04:19:57;12.45;;;3.88;;
58581;SDS011;44361;51.476;5.700;2024-03-23T04:22:23;23.23;;;4.90;;
58581;SDS011;44361;51.476;5.700;2024-03-23T04:24:51;18.52;;;4.45;;
58581;SDS011;44361;51.476;5.700;2024-03-23T04:27:18;19.23;;;4.18;;
58581;SDS011;44361;51.476;5.700;2024-03-23T04:29:46;15.05;;;4.35;;
58581;SDS011;44361;51.476;5.700;2024-03-23T04:32:13;13.98;;;4.03;;
58581;SDS011;44361;51.476;5.700;2024-03-23T04:34:39;13.48;;;4.32;;
58581;SDS011;44361;51.476;5.700;2024-03-23T04:37:04;15.50;;;4.22;;
58581;SDS011;44361;51.476;5.700;2024-03-23T04:39:30;13.48;;;4.32;;
58581;SDS011;44361;51.476;5.700;2024-03-23T04:41:56;16.70;;;4.70;;
58581;SDS011;44361;51.476;5.700;2024-03-23T04:44:21;24.05;;;4.60;;
58581;SDS011;44361;51.476;5.700;2024-03-23T04:46:47;12.30;;;4.65;;
58581;SDS011;44361;51.476;5.700;2024-03-23T04:49:12;19.15;;;4.80;;
58581;SDS011;44361;51.476;5.700;2024-03-23T04:51:38;12.18;;;4.47;;
58581;SDS011;44361;51.476;5.700;2024-03-23T04:54:03;22.65;;;4.97;;
58581;SDS011;44361;51.476;5.700;2024-03-23T04:56:30;23.25;;;5.43;;
58581;SDS011;44361;51.476;5.700;2024-03-23T04:58:56;18.10;;;5.28;;
58581;SDS011;44361;51.476;5.700;2024-03-23T05:01:26;21.80;;;5.15;;
58581;SDS011;44361;51.476;5.700;2024-03-23T05:03:52;22.23;;;5.45;;
58581;SDS011;44361;51.476;5.700;2024-03-23T05:06:18;17.20;;;5.43;;
58581;SDS011;44361;51.476;5.700;2024-03-23T05:08:44;21.45;;;6.30;;
58581;SDS011;44361;51.476;5.700;2024-03-23T05:11:10;26.58;;;6.95;;
58581;SDS011;44361;51.476;5.700;2024-03-23T05:13:37;23.98;;;7.10;;
58581;SDS011;44361;51.476;5.700;2024-03-23T05:16:03;26.60;;;7.55;;
58581;SDS011;44361;51.476;5.700;2024-03-23T05:18:29;25.98;;;7.55;;
58581;SDS011;44361;51.476;5.700;2024-03-23T05:20:58;20.80;;;8.23;;
58581;SDS011;44361;51.476;5.700;2024-03-23T05:23:24;31.73;;;9.23;;
58581;SDS011;44361;51.476;5.700;2024-03-23T05:25:50;25.67;;;8.95;;
58581;SDS011;44361;51.476;5.700;2024-03-23T05:28:16;25.08;;;8.80;;
58581;SDS011;44361;51.476;5.700;2024-03-23T05:30:42;27.02;;;9.73;;
58581;SDS011;44361;51.476;5.700;2024-03-23T05:33:08;29.65;;;9.50;;
58581;SDS011;44361;51.476;5.700;2024-03-23T05:35:34;25.85;;;9.82;;
58581;SDS011;44361;51.476;5.700;2024-03-23T05:37:59;36.67;;;10.02;;
58581;SDS011;44361;51.476;5.700;2024-03-23T05:40:26;34.30;;;10.25;;
58581;SDS011;44361;51.476;5.700;2024-03-23T05:42:52;30.77;;;10.30;;
58581;SDS011;44361;51.476;5.700;2024-03-23T05:45:21;34.30;;;10.75;;
58581;SDS011;44361;51.476;5.700;2024-03-23T05:47:47;33.20;;;10.43;;
58581;SDS011;44361;51.476;5.700;2024-03-23T05:50:13;39.65;;;9.95;;
58581;SDS011;44361;51.476;5.700;2024-03-23T05:52:39;30.38;;;11.30;;
58581;SDS011;44361;51.476;5.700;2024-03-23T05:55:05;33.85;;;11.60;;
58581;SDS011;44361;51.476;5.700;2024-03-23T05:57:31;39.85;;;10.38;;
58581;SDS011;44361;51.476;5.700;2024-03-23T05:59:57;33.67;;;10.63;;
58581;SDS011;44361;51.476;5.700;2024-03-23T06:02:23;27.90;;;10.05;;
58581;SDS011;44361;51.476;5.700;2024-03-23T06:04:49;33.50;;;10.88;;
58581;SDS011;44361;51.476;5.700;2024-03-23T06:07:14;35.38;;;11.48;;
58581;SDS011;44361;51.476;5.700;2024-03-23T06:09:41;38.95;;;11.30;;
58581;SDS011;44361;51.476;5.700;2024-03-23T06:12:06;43.03;;;11.63;;
58581;SDS011;44361;51.476;5.700;2024-03-23T06:14:32;32.80;;;10.50;;
58581;SDS011;44361;51.476;5.700;2024-03-23T06:16:59;38.38;;;11.35;;
58581;SDS011;44361;51.476;5.700;2024-03-23T06:19:25;32.30;;;9.10;;
58581;SDS011;44361;51.476;5.700;2024-03-23T06:21:54;31.70;;;9.82;;
58581;SDS011;44361;51.476;5.700;2024-03-23T06:24:22;43.30;;;9.77;;
58581;SDS011;44361;51.476;5.700;2024-03-23T06:26:49;29.05;;;9.23;;
58581;SDS011;44361;51.476;5.700;2024-03-23T06:29:15;32.88;;;9.20;;
58581;SDS011;44361;51.476;5.700;2024-03-23T06:31:40;30.15;;;8.88;;
58581;SDS011;44361;51.476;5.700;2024-03-23T06:34:06;39.88;;;9.65;;
58581;SDS011;44361;51.476;5.700;2024-03-23T06:36:31;29.80;;;9.43;;
58581;SDS011;44361;51.476;5.700;2024-03-23T06:38:57;37.40;;;9.23;;
58581;SDS011;44361;51.476;5.700;2024-03-23T06:41:23;23.95;;;8.60;;
58581;SDS011;44361;51.476;5.700;2024-03-23T06:43:50;36.92;;;9.07;;
58581;SDS011;44361;51.476;5.700;2024-03-23T06:46:15;31.85;;;9.40;;
58581;SDS011;44361;51.476;5.700;2024-03-23T06:48:41;33.90;;;7.93;;
58581;SDS011;44361;51.476;5.700;2024-03-23T06:51:06;26.63;;;7.75;;
58581;SDS011;44361;51.476;5.700;2024-03-23T06:53:32;17.98;;;5.53;;
58581;SDS011;44361;51.476;5.700;2024-03-23T06:55:58;19.38;;;5.75;;
58581;SDS011;44361;51.476;5.700;2024-03-23T06:58:24;23.92;;;6.15;;
58581;SDS011;44361;51.476;5.700;2024-03-23T07:00:50;20.13;;;4.82;;
58581;SDS011;44361;51.476;5.700;2024-03-23T07:03:19;14.77;;;4.78;;
58581;SDS011;44361;51.476;5.700;2024-03-23T07:05:46;23.67;;;5.60;;
58581;SDS011;44361;51.476;5.700;2024-03-23T07:08:11;12.35;;;4.82;;
58581;SDS011;44361;51.476;5.700;2024-03-23T07:10:40;22.52;;;5.57;;
58581;SDS011;44361;51.476;5.700;2024-03-23T07:13:06;21.40;;;7.13;;
58581;SDS011;44361;51.476;5.700;2024-03-23T07:15:31;15.55;;;4.38;;
58581;SDS011;44361;51.476;5.700;2024-03-23T07:17:57;18.48;;;5.25;;
58581;SDS011;44361;51.476;5.700;2024-03-23T07:20:23;21.90;;;5.00;;
58581;SDS011;44361;51.476;5.700;2024-03-23T07:22:48;13.30;;;4.13;;
58581;SDS011;44361;51.476;5.700;2024-03-23T07:25:14;8.30;;;3.38;;
58581;SDS011;44361;51.476;5.700;2024-03-23T07:27:39;14.00;;;3.90;;
58581;SDS011;44361;51.476;5.700;2024-03-23T07:30:05;15.70;;;3.70;;
58581;SDS011;44361;51.476;5.700;2024-03-23T07:32:31;16.75;;;3.75;;
58581;SDS011;44361;51.476;5.700;2024-03-23T07:34:57;15.48;;;4.97;;
58581;SDS011;44361;51.476;5.700;2024-03-23T07:37:22;17.50;;;4.60;;
58581;SDS011;44361;51.476;5.700;2024-03-23T07:39:48;26.77;;;4.85;;
58581;SDS011;44361;51.476;5.700;2024-03-23T07:42:13;14.15;;;4.70;;
58581;SDS011;44361;51.476;5.700;2024-03-23T07:44:39;16.17;;;4.45;;
58581;SDS011;44361;51.476;5.700;2024-03-23T07:47:05;13.45;;;3.45;;
58581;SDS011;44361;51.476;5.700;2024-03-23T07:49:30;6.82;;;2.92;;
58581;SDS011;44361;51.476;5.700;2024-03-23T07:51:56;13.02;;;3.45;;
58581;SDS011;44361;51.476;5.700;2024-03-23T07:54:21;14.63;;;3.97;;
58581;SDS011;44361;51.476;5.700;2024-03-23T07:56:47;17.90;;;3.88;;
58581;SDS011;44361;51.476;5.700;2024-03-23T07:59:13;25.20;;;4.72;;
58581;SDS011;44361;51.476;5.700;2024-03-23T08:01:38;15.25;;;3.97;;
58581;SDS011;44361;51.476;5.700;2024-03-23T08:04:04;13.38;;;4.13;;
58581;SDS011;44361;51.476;5.700;2024-03-23T08:06:31;19.25;;;5.25;;
58581;SDS011;44361;51.476;5.700;2024-03-23T08:08:56;21.60;;;5.03;;
58581;SDS011;44361;51.476;5.700;2024-03-23T08:11:26;15.68;;;4.75;;
58581;SDS011;44361;51.476;5.700;2024-03-23T08:13:55;10.50;;;3.83;;
58581;SDS011;44361;51.476;5.700;2024-03-23T08:16:21;15.82;;;3.70;;
58581;SDS011;44361;51.476;5.700;2024-03-23T08:18:47;15.25;;;3.67;;
58581;SDS011;44361;51.476;5.700;2024-03-23T08:21:13;15.88;;;3.45;;
58581;SDS011;44361;51.476;5.700;2024-03-23T08:23:38;13.48;;;2.97;;
58581;SDS011;44361;51.476;5.700;2024-03-23T08:28:31;14.77;;;2.72;;
58581;SDS011;44361;51.476;5.700;2024-03-23T08:30:56;13.95;;;2.60;;
58581;SDS011;44361;51.476;5.700;2024-03-23T08:33:25;16.88;;;3.05;;
58581;SDS011;44361;51.476;5.700;2024-03-23T08:35:54;14.93;;;3.05;;
58581;SDS011;44361;51.476;5.700;2024-03-23T08:38:21;21.75;;;3.67;;
58581;SDS011;44361;51.476;5.700;2024-03-23T08:40:47;14.00;;;2.47;;
58581;SDS011;44361;51.476;5.700;2024-03-23T08:43:12;12.52;;;2.42;;
58581;SDS011;44361;51.476;5.700;2024-03-23T08:45:38;17.00;;;2.20;;
58581;SDS011;44361;51.476;5.700;2024-03-23T08:48:03;11.23;;;2.30;;
58581;SDS011;44361;51.476;5.700;2024-03-23T08:50:29;8.45;;;2.15;;
58581;SDS011;44361;51.476;5.700;2024-03-23T08:52:55;8.40;;;1.83;;
58581;SDS011;44361;51.476;5.700;2024-03-23T08:55:20;17.58;;;2.78;;
58581;SDS011;44361;51.476;5.700;2024-03-23T08:57:46;6.82;;;1.98;;
58581;SDS011;44361;51.476;5.700;2024-03-23T09:00:12;14.70;;;2.58;;
58581;SDS011;44361;51.476;5.700;2024-03-23T09:02:38;13.35;;;1.77;;
58581;SDS011;44361;51.476;5.700;2024-03-23T09:05:03;9.65;;;1.73;;
58581;SDS011;44361;51.476;5.700;2024-03-23T09:07:30;8.23;;;1.88;;
58581;SDS011;44361;51.476;5.700;2024-03-23T09:09:56;9.80;;;1.60;;
58581;SDS011;44361;51.476;5.700;2024-03-23T09:12:22;12.93;;;1.42;;
58581;SDS011;44361;51.476;5.700;2024-03-23T09:14:47;8.15;;;1.75;;
58581;SDS011;44361;51.476;5.700;2024-03-23T09:17:14;9.98;;;1.60;;
58581;SDS011;44361;51.476;5.700;2024-03-23T09:19:40;7.40;;;1.20;;
58581;SDS011;44361;51.476;5.700;2024-03-23T09:22:05;8.98;;;0.90;;
58581;SDS011;44361;51.476;5.700;2024-03-23T09:24:31;5.65;;;0.50;;
58581;SDS011;44361;51.476;5.700;2024-03-23T09:26:57;14.90;;;1.13;;
58581;SDS011;44361;51.476;5.700;2024-03-23T09:29:22;4.93;;;0.70;;
58581;SDS011;44361;51.476;5.700;2024-03-23T09:31:48;2.30;;;0.40;;
58581;SDS011;44361;51.476;5.700;2024-03-23T09:34:14;13.98;;;0.98;;
58581;SDS011;44361;51.476;5.700;2024-03-23T09:36:40;3.38;;;1.00;;
58581;SDS011;44361;51.476;5.700;2024-03-23T09:39:06;9.15;;;1.30;;
58581;SDS011;44361;51.476;5.700;2024-03-23T09:41:34;5.97;;;0.77;;
58581;SDS011;44361;51.476;5.700;2024-03-23T09:44:00;8.05;;;1.27;;
58581;SDS011;44361;51.476;5.700;2024-03-23T09:46:26;2.35;;;0.68;;
58581;SDS011;44361;51.476;5.700;2024-03-23T09:48:53;4.50;;;0.85;;
58581;SDS011;44361;51.476;5.700;2024-03-23T09:51:20;9.13;;;1.30;;
58581;SDS011;44361;51.476;5.700;2024-03-23T09:53:45;6.78;;;1.05;;
58581;SDS011;44361;51.476;5.700;2024-03-23T09:56:11;10.57;;;1.20;;
58581;SDS011;44361;51.476;5.700;2024-03-23T09:58:36;9.18;;;1.50;;
58581;SDS011;44361;51.476;5.700;2024-03-23T10:01:02;4.28;;;0.98;;
58581;SDS011;44361;51.476;5.700;2024-03-23T10:03:28;8.30;;;1.20;;
58581;SDS011;44361;51.476;5.700;2024-03-23T10:06:00;9.32;;;1.33;;
58581;SDS011;44361;51.476;5.700;2024-03-23T10:08:27;13.60;;;1.50;;
58581;SDS011;44361;51.476;5.700;2024-03-23T10:10:54;8.38;;;1.50;;
58581;SDS011;44361;51.476;5.700;2024-03-23T10:13:23;8.38;;;1.70;;
58581;SDS011;44361;51.476;5.700;2024-03-23T10:15:56;11.65;;;2.08;;
58581;SDS011;44361;51.476;5.700;2024-03-23T10:18:22;11.52;;;1.92;;
58581;SDS011;44361;51.476;5.700;2024-03-23T10:21:06;17.75;;;1.85;;
58581;SDS011;44361;51.476;5.700;2024-03-23T10:23:37;7.93;;;1.50;;
58581;SDS011;44361;51.476;5.700;2024-03-23T10:26:17;8.13;;;1.38;;
58581;SDS011;44361;51.476;5.700;2024-03-23T10:31:32;8.60;;;1.02;;
58581;SDS011;44361;51.476;5.700;2024-03-23T10:34:00;4.40;;;0.70;;
58581;SDS011;44361;51.476;5.700;2024-03-23T10:36:27;2.78;;;0.88;;
58581;SDS011;44361;51.476;5.700;2024-03-23T10:38:55;7.63;;;0.90;;
58581;SDS011;44361;51.476;5.700;2024-03-23T10:41:24;7.05;;;1.00;;
58581;SDS011;44361;51.476;5.700;2024-03-23T10:43:53;9.60;;;1.02;;
58581;SDS011;44361;51.476;5.700;2024-03-23T10:46:20;5.28;;;1.00;;
58581;SDS011;44361;51.476;5.700;2024-03-23T10:48:46;5.63;;;1.10;;
58581;SDS011;44361;51.476;5.700;2024-03-23T10:51:12;7.65;;;1.15;;
58581;SDS011;44361;51.476;5.700;2024-03-23T10:53:39;4.80;;;1.10;;
58581;SDS011;44361;51.476;5.700;2024-03-23T10:56:05;4.68;;;1.17;;
58581;SDS011;44361;51.476;5.700;2024-03-23T10:58:39;5.03;;;1.10;;
58581;SDS011;44361;51.476;5.700;2024-03-23T11:01:07;14.40;;;1.30;;
58581;SDS011;44361;51.476;5.700;2024-03-23T11:03:37;5.75;;;1.40;;
58581;SDS011;44361;51.476;5.700;2024-03-23T11:06:04;8.23;;;1.27;;
58581;SDS011;44361;51.476;5.700;2024-03-23T11:08:31;9.30;;;1.50;;
58581;SDS011;44361;51.476;5.700;2024-03-23T11:11:22;6.95;;;1.15;;
58581;SDS011;44361;51.476;5.700;2024-03-23T11:13:53;5.90;;;1.35;;
58581;SDS011;44361;51.476;5.700;2024-03-23T11:16:23;7.65;;;1.20;;
58581;SDS011;44361;51.476;5.700;2024-03-23T11:18:49;6.57;;;1.27;;
58581;SDS011;44361;51.476;5.700;2024-03-23T11:24:19;4.38;;;1.10;;
58581;SDS011;44361;51.476;5.700;2024-03-23T11:26:50;8.18;;;1.40;;
58581;SDS011;44361;51.476;5.700;2024-03-23T11:29:16;6.40;;;1.50;;
58581;SDS011;44361;51.476;5.700;2024-03-23T11:31:49;10.93;;;1.45;;
58581;SDS011;44361;51.476;5.700;2024-03-23T11:34:19;9.00;;;1.40;;
58581;SDS011;44361;51.476;5.700;2024-03-23T11:36:45;5.43;;;1.35;;
58581;SDS011;44361;51.476;5.700;2024-03-23T11:39:15;11.40;;;1.73;;
58581;SDS011;44361;51.476;5.700;2024-03-23T11:41:48;13.07;;;1.52;;
58581;SDS011;44361;51.476;5.700;2024-03-23T11:44:21;7.90;;;1.40;;
58581;SDS011;44361;51.476;5.700;2024-03-23T11:46:48;8.85;;;1.08;;
58581;SDS011;44361;51.476;5.700;2024-03-23T11:49:27;5.13;;;0.80;;
58581;SDS011;44361;51.476;5.700;2024-03-23T11:51:55;5.50;;;1.00;;
58581;SDS011;44361;51.476;5.700;2024-03-23T11:54:21;5.53;;;0.60;;
58581;SDS011;44361;51.476;5.700;2024-03-23T11:59:38;2.47;;;0.70;;
58581;SDS011;44361;51.476;5.700;2024-03-23T12:02:09;4.78;;;0.63;;
58581;SDS011;44361;51.476;5.700;2024-03-23T12:04:36;4.45;;;0.52;;
58581;SDS011;44361;51.476;5.700;2024-03-23T12:07:15;4.55;;;0.73;;
58581;SDS011;44361;51.476;5.700;2024-03-23T12:09:43;7.65;;;1.05;;
58581;SDS011;44361;51.476;5.700;2024-03-23T12:12:14;5.35;;;0.82;;
58581;SDS011;44361;51.476;5.700;2024-03-23T12:14:45;4.35;;;0.70;;
58581;SDS011;44361;51.476;5.700;2024-03-23T12:17:25;8.82;;;0.50;;
58581;SDS011;44361;51.476;5.700;2024-03-23T12:19:51;6.80;;;0.77;;
58581;SDS011;44361;51.476;5.700;2024-03-23T12:22:20;5.22;;;1.13;;
58581;SDS011;44361;51.476;5.700;2024-03-23T12:24:46;4.60;;;0.77;;
58581;SDS011;44361;51.476;5.700;2024-03-23T12:27:12;2.85;;;0.38;;
58581;SDS011;44361;51.476;5.700;2024-03-23T12:29:38;2.40;;;0.32;;
58581;SDS011;44361;51.476;5.700;2024-03-23T12:32:04;3.42;;;0.93;;
58581;SDS011;44361;51.476;5.700;2024-03-23T12:34:30;3.42;;;0.80;;
58581;SDS011;44361;51.476;5.700;2024-03-23T12:36:56;8.32;;;0.90;;
58581;SDS011;44361;51.476;5.700;2024-03-23T12:39:21;3.17;;;0.70;;
58581;SDS011;44361;51.476;5.700;2024-03-23T12:41:47;5.10;;;1.08;;
58581;SDS011;44361;51.476;5.700;2024-03-23T12:44:14;6.30;;;0.95;;
58581;SDS011;44361;51.476;5.700;2024-03-23T12:46:40;6.05;;;0.90;;
58581;SDS011;44361;51.476;5.700;2024-03-23T12:49:09;5.82;;;0.90;;
58581;SDS011;44361;51.476;5.700;2024-03-23T12:51:35;2.38;;;0.80;;
58581;SDS011;44361;51.476;5.700;2024-03-23T12:54:01;5.97;;;0.70;;
58581;SDS011;44361;51.476;5.700;2024-03-23T12:56:27;7.90;;;0.70;;
58581;SDS011;44361;51.476;5.700;2024-03-23T12:58:56;4.18;;;0.75;;
58581;SDS011;44361;51.476;5.700;2024-03-23T13:01:22;6.03;;;0.88;;
58581;SDS011;44361;51.476;5.700;2024-03-23T13:03:51;5.15;;;1.10;;
58581;SDS011;44361;51.476;5.700;2024-03-23T13:06:18;6.05;;;0.80;;
58581;SDS011;44361;51.476;5.700;2024-03-23T13:08:44;7.82;;;1.00;;
58581;SDS011;44361;51.476;5.700;2024-03-23T13:11:10;5.00;;;0.88;;
58581;SDS011;44361;51.476;5.700;2024-03-23T13:13:36;3.30;;;0.68;;
58581;SDS011;44361;51.476;5.700;2024-03-23T13:16:02;4.15;;;0.80;;
58581;SDS011;44361;51.476;5.700;2024-03-23T13:18:29;2.17;;;0.38;;
58581;SDS011;44361;51.476;5.700;2024-03-23T13:20:55;3.30;;;0.68;;
58581;SDS011;44361;51.476;5.700;2024-03-23T13:23:21;4.80;;;0.73;;
58581;SDS011;44361;51.476;5.700;2024-03-23T13:25:53;2.58;;;0.50;;
58581;SDS011;44361;51.476;5.700;2024-03-23T13:28:21;4.32;;;0.55;;
58581;SDS011;44361;51.476;5.700;2024-03-23T13:30:53;3.97;;;0.40;;
58581;SDS011;44361;51.476;5.700;2024-03-23T13:33:20;5.97;;;0.82;;
58581;SDS011;44361;51.476;5.700;2024-03-23T13:36:03;3.58;;;0.70;;
58581;SDS011;44361;51.476;5.700;2024-03-23T13:38:29;3.97;;;0.43;;
58581;SDS011;44361;51.476;5.700;2024-03-23T13:40:55;5.65;;;0.70;;
58581;SDS011;44361;51.476;5.700;2024-03-23T13:43:22;2.38;;;0.60;;
58581;SDS011;44361;51.476;5.700;2024-03-23T13:45:56;3.17;;;0.75;;
58581;SDS011;44361;51.476;5.700;2024-03-23T13:48:23;3.88;;;0.65;;
58581;SDS011;44361;51.476;5.700;2024-03-23T13:51:02;5.07;;;0.77;;
58581;SDS011;44361;51.476;5.700;2024-03-23T13:53:29;9.02;;;0.75;;
58581;SDS011;44361;51.476;5.700;2024-03-23T13:55:55;3.53;;;0.68;;
58581;SDS011;44361;51.476;5.700;2024-03-23T13:58:21;4.63;;;0.80;;
58581;SDS011;44361;51.476;5.700;2024-03-23T14:00:47;4.13;;;0.70;;
58581;SDS011;44361;51.476;5.700;2024-03-23T14:03:13;10.25;;;1.40;;
58581;SDS011;44361;51.476;5.700;2024-03-23T14:05:39;2.03;;;0.45;;
58581;SDS011;44361;51.476;5.700;2024-03-23T14:08:06;2.65;;;0.50;;
58581;SDS011;44361;51.476;5.700;2024-03-23T14:10:36;6.07;;;0.60;;
58581;SDS011;44361;51.476;5.700;2024-03-23T14:13:04;2.97;;;0.50;;
58581;SDS011;44361;51.476;5.700;2024-03-23T14:15:30;3.17;;;0.80;;
58581;SDS011;44361;51.476;5.700;2024-03-23T14:17:56;7.53;;;0.90;;
58581;SDS011;44361;51.476;5.700;2024-03-23T14:20:22;4.75;;;0.77;;
58581;SDS011;44361;51.476;5.700;2024-03-23T14:22:50;7.57;;;1.20;;
58581;SDS011;44361;51.476;5.700;2024-03-23T14:25:16;2.92;;;0.43;;
58581;SDS011;44361;51.476;5.700;2024-03-23T14:27:45;7.30;;;1.00;;
58581;SDS011;44361;51.476;5.700;2024-03-23T14:30:11;6.70;;;0.90;;
58581;SDS011;44361;51.476;5.700;2024-03-23T14:32:37;4.20;;;1.38;;
58581;SDS011;44361;51.476;5.700;2024-03-23T14:35:04;10.75;;;1.48;;
58581;SDS011;44361;51.476;5.700;2024-03-23T14:37:30;7.40;;;1.40;;
58581;SDS011;44361;51.476;5.700;2024-03-23T14:39:56;11.88;;;1.27;;
58581;SDS011;44361;51.476;5.700;2024-03-23T14:42:22;7.20;;;1.08;;
58581;SDS011;44361;51.476;5.700;2024-03-23T14:44:48;8.13;;;1.10;;
58581;SDS011;44361;51.476;5.700;2024-03-23T14:47:14;12.02;;;1.50;;
58581;SDS011;44361;51.476;5.700;2024-03-23T14:49:42;11.90;;;1.60;;
58581;SDS011;44361;51.476;5.700;2024-03-23T14:52:12;9.60;;;1.20;;
58581;SDS011;44361;51.476;5.700;2024-03-23T14:54:40;7.13;;;0.98;;
58581;SDS011;44361;51.476;5.700;2024-03-23T14:57:05;6.70;;;0.95;;
58581;SDS011;44361;51.476;5.700;2024-03-23T14:59:34;6.53;;;0.90;;
58581;SDS011;44361;51.476;5.700;2024-03-23T15:02:00;8.82;;;1.20;;
58581;SDS011;44361;51.476;5.700;2024-03-23T15:04:26;4.07;;;0.95;;
58581;SDS011;44361;51.476;5.700;2024-03-23T15:06:51;6.38;;;1.05;;
58581;SDS011;44361;51.476;5.700;2024-03-23T15:09:17;5.28;;;0.93;;
58581;SDS011;44361;51.476;5.700;2024-03-23T15:11:43;5.15;;;1.10;;
58581;SDS011;44361;51.476;5.700;2024-03-23T15:14:09;3.45;;;0.77;;
58581;SDS011;44361;51.476;5.700;2024-03-23T15:16:36;5.05;;;1.00;;
58581;SDS011;44361;51.476;5.700;2024-03-23T15:19:02;5.90;;;0.98;;
58581;SDS011;44361;51.476;5.700;2024-03-23T15:21:28;5.88;;;1.33;;
58581;SDS011;44361;51.476;5.700;2024-03-23T15:23:53;6.10;;;1.23;;
58581;SDS011;44361;51.476;5.700;2024-03-23T15:26:19;5.05;;;0.90;;
58581;SDS011;44361;51.476;5.700;2024-03-23T15:28:47;5.00;;;1.05;;
58581;SDS011;44361;51.476;5.700;2024-03-23T15:31:22;4.47;;;0.70;;
58581;SDS011;44361;51.476;5.700;2024-03-23T15:33:48;5.10;;;0.55;;
58581;SDS011;44361;51.476;5.700;2024-03-23T15:36:13;4.32;;;0.95;;
58581;SDS011;44361;51.476;5.700;2024-03-23T15:38:39;4.60;;;0.57;;